Terminal Aerodrome Forecast
Issued by NWS Cleveland, OH

Home | Current Version | Previous Version | Graphics & Text | Print | Product List | Glossary Off
Versions: 1 2 3 4 5 6 7 8 9 10 11 12 13 14 15 16 17 18 19 20 21 22 23 24 25

000
FTUS41 KCLE 032000 AAB
TAFYNG
TAF AMD
KYNG 032016Z 0320/0418 16012KT 2SM -FZRA BR OVC020
     FM032300 18008KT 2SM -RA BR SCT006 OVC015 WS020/23045KT
      TEMPO 0323/0324 2SM -FZRA BR OVC006
     FM040300 21014G20KT 4SM -SHRA BR OVC006
     FM040900 28012KT 4SM -SN BR OVC012=

USA.gov is the U.S. government's official web portal to all federal, state and local government web resources and services.